Time;durP1;ratioP1;P1;durP2;ratioP2;P2;SDS_P1;SDS_P2;PMS_P1;PMS_P2;Temp;Humidity;BMP_temperature;BMP_pressure;BME280_temperature;BME280_humidity;BME280_pressure;Samples;Min_cycle;Max_cycle;Signal;HPM_P1;HPM_P2
2022/12/31 00:00:13;;;;;;;56.05;12.60;;;;;;;7.07;86.66;98528.19;4539273;31;20836;-79
2022/12/31 00:02:40;;;;;;;26.45;8.10;;;;;;;7.93;84.50;98526.25;4539135;31;20071;-79
2022/12/31 00:05:08;;;;;;;101.12;15.18;;;;;;;7.57;85.41;98518.53;4539424;31;20088;-79
2022/12/31 00:07:35;;;;;;;18.45;7.12;;;;;;;7.54;84.55;98516.88;4539395;31;20110;-79
2022/12/31 00:10:03;;;;;;;153.98;17.33;;;;;;;8.39;79.87;98521.63;4539221;31;20101;-78
2022/12/31 00:12:30;;;;;;;79.07;14.55;;;;;;;7.51;83.89;98521.25;4540030;31;20101;-79
2022/12/31 00:14:56;;;;;;;98.87;16.08;;;;;;;6.96;87.64;98527.56;4539516;31;20115;-79
2022/12/31 00:17:23;;;;;;;;;;;;;;;7.14;85.48;98522.06;4539205;31;20109;-78
2022/12/31 00:19:50;;;;;;;40.65;12.40;;;;;;;7.14;86.62;98524.63;4539460;31;19947;-78
2022/12/31 00:22:17;;;;;;;;;;;;;;;7.21;87.41;98523.59;4539672;31;20098;-78
2022/12/31 00:24:43;;;;;;;100.75;15.07;;;;;;;7.34;85.97;98528.50;4525195;31;19988;-79
2022/12/31 00:27:10;;;;;;;114.95;17.90;;;;;;;7.36;86.12;98525.00;4539360;31;20722;-79
2022/12/31 00:29:38;;;;;;;;;;;;;;;7.16;87.35;98533.12;4539350;31;20448;-79
2022/12/31 00:32:05;;;;;;;117.68;18.25;;;;;;;6.27;92.46;98528.03;4524334;31;20027;-78
2022/12/31 00:34:32;;;;;;;;;;;;;;;6.87;89.25;98527.75;4539700;31;20063;-78
2022/12/31 00:36:58;;;;;;;107.65;18.05;;;;;;;6.70;89.21;98522.09;4539033;31;19975;-79
2022/12/31 00:39:25;;;;;;;;;;;;;;;6.83;88.23;98518.44;4539856;31;20088;-79
2022/12/31 00:41:52;;;;;;;134.23;18.33;;;;;;;6.43;91.21;98524.34;4539403;31;19964;-78
2022/12/31 00:44:19;;;;;;;;;;;;;;;7.36;85.67;98529.28;4539480;31;20091;-79
2022/12/31 00:46:46;;;;;;;70.65;14.75;;;;;;;6.85;86.71;98537.22;4539402;31;19989;-78
2022/12/31 00:49:13;;;;;;;66.30;14.73;;;;;;;7.49;84.21;98546.94;4538258;31;20182;-79
2022/12/31 00:51:40;;;;;;;121.62;18.52;;;;;;;5.61;94.22;98557.25;4539116;31;20168;-79
2022/12/31 00:54:08;;;;;;;113.68;19.10;;;;;;;6.74;88.42;98563.06;4539684;31;20106;-79
2022/12/31 00:56:35;;;;;;;88.25;16.67;;;;;;;6.42;90.83;98567.94;4539756;31;20104;-79
2022/12/31 00:59:02;;;;;;;125.10;20.05;;;;;;;7.54;84.39;98564.81;4539177;31;20083;-79
2022/12/31 01:01:31;;;;;;;49.55;13.80;;;;;;;7.01;85.96;98569.34;4539763;31;20071;-79
2022/12/31 01:04:03;;;;;;;57.03;14.48;;;;;;;6.03;90.03;98570.28;4539866;31;20076;-79
2022/12/31 01:06:30;;;;;;;72.80;15.00;;;;;;;5.41;93.92;98578.00;4539403;31;20059;-78
2022/12/31 01:08:57;;;;;;;72.28;14.80;;;;;;;6.25;92.49;98581.88;4539690;31;20074;-79
2022/12/31 01:11:27;;;;;;;;;;;;;;;6.26;92.55;98582.72;4540118;31;20510;-78
2022/12/31 01:14:10;;;;;;;65.80;14.30;;;;;;;6.08;91.37;98581.34;4539811;31;19993;-79
2022/12/31 01:16:49;;;;;;;61.72;14.60;;;;;;;6.33;91.29;98571.50;4539501;31;20095;-78
2022/12/31 01:19:22;;;;;;;67.00;16.30;;;;;;;6.79;88.44;98588.59;4539258;31;20093;-79
2022/12/31 01:21:50;;;;;;;67.70;15.32;;;;;;;6.43;89.88;98590.13;4539772;31;20103;-78
2022/12/31 01:24:17;;;;;;;118.62;19.45;;;;;;;6.92;88.81;98582.41;4539835;31;20139;-79
2022/12/31 01:26:44;;;;;;;66.87;15.63;;;;;;;6.85;88.86;98581.66;4539596;31;20154;-79
2022/12/31 01:29:11;;;;;;;152.60;20.35;;;;;;;8.13;82.56;98578.84;4539665;31;20087;-79
2022/12/31 01:31:39;;;;;;;181.25;20.35;;;;;;;7.85;83.63;98580.38;4539652;31;20079;-79
2022/12/31 01:34:06;;;;;;;203.90;23.10;;;;;;;8.12;81.70;98578.88;4539297;31;20109;-79
2022/12/31 01:36:34;;;;;;;214.40;23.77;;;;;;;8.40;80.54;98585.06;4539912;31;20596;-79
2022/12/31 01:39:03;;;;;;;192.05;22.50;;;;;;;7.64;83.90;98586.00;4525442;31;20098;-79
2022/12/31 01:41:33;;;;;;;154.45;21.27;;;;;;;8.07;82.84;98586.69;4539480;31;20131;-79
2022/12/31 01:44:21;;;;;;;177.32;22.40;;;;;;;7.86;84.18;98597.47;4539848;31;20144;-79
2022/12/31 01:46:54;;;;;;;141.12;20.48;;;;;;;8.19;81.90;98594.97;4539359;31;20087;-79
2022/12/31 01:49:24;;;;;;;179.57;22.70;;;;;;;8.40;81.05;98600.50;4539052;31;20558;-79
2022/12/31 01:51:57;;;;;;;252.82;25.20;;;;;;;7.99;80.78;98598.06;4525430;31;20106;-79
2022/12/31 01:54:24;;;;;;;249.88;25.05;;;;;;;8.78;78.27;98595.22;4539336;31;20377;-79
2022/12/31 01:56:53;;;;;;;201.25;21.65;;;;;;;8.51;77.26;98591.66;4525341;31;20063;-79
2022/12/31 01:59:20;;;;;;;179.65;20.25;;;;;;;8.64;78.57;98593.88;4524869;31;20162;-79
2022/12/31 02:01:51;;;;;;;170.90;20.25;;;;;;;8.79;77.52;98591.75;4539332;31;20100;-79
2022/12/31 02:04:19;;;;;;;159.65;21.08;;;;;;;8.73;78.07;98594.53;4525293;31;20104;-79
2022/12/31 02:06:54;;;;;;;213.52;21.17;;;;;;;8.46;77.59;98589.19;4524965;31;20096;-79
2022/12/31 02:09:21;;;;;;;107.78;17.83;;;;;;;8.93;76.70;98587.94;4524967;31;20064;-79
2022/12/31 02:11:49;;;;;;;171.80;21.95;;;;;;;8.04;78.39;98591.91;4539332;31;20100;-79
2022/12/31 02:14:19;;;;;;;157.05;20.85;;;;;;;8.79;77.00;98604.63;4539348;31;20064;-79
2022/12/31 02:17:05;;;;;;;179.40;22.67;;;;;;;8.19;79.45;98608.72;4524952;31;20377;-79
2022/12/31 02:19:44;;;;;;;124.28;19.52;;;;;;;9.19;76.11;98612.13;4539622;31;20070;-79
2022/12/31 02:22:32;;;;;;;227.18;23.70;;;;;;;9.26;74.48;98604.19;4539443;31;20102;-79
2022/12/31 02:25:37;;;;;;;113.85;19.20;;;;;;;9.27;74.27;98605.87;4539444;31;20078;-79
2022/12/31 02:28:13;;;;;;;206.75;21.95;;;;;;;9.69;72.61;98615.81;4539871;31;20152;-79
2022/12/31 02:30:41;;;;;;;174.25;20.58;;;;;;;8.78;74.58;98611.50;4539531;31;20109;-79
2022/12/31 02:33:15;;;;;;;250.90;25.77;;;;;;;8.97;75.17;98617.84;4524999;31;20055;-79
2022/12/31 02:35:52;;;;;;;184.00;22.92;;;;;;;8.43;76.26;98615.00;4539382;31;20064;-79
2022/12/31 02:38:31;;;;;;;147.00;21.62;;;;;;;8.53;76.68;98624.16;4524824;31;20103;-79
2022/12/31 02:40:59;;;;;;;115.62;19.48;;;;;;;8.35;78.75;98630.59;4524623;31;20055;-79
2022/12/31 02:43:26;;;;;;;144.90;20.67;;;;;;;8.40;79.02;98622.81;4538991;31;20075;-79
2022/12/31 02:46:26;;;;;;;172.57;23.67;;;;;;;8.77;77.01;98620.13;4539237;31;20088;-79
2022/12/31 02:49:18;;;;;;;243.15;24.90;;;;;;;8.63;78.97;98617.06;4507464;31;20079;-79
2022/12/31 02:51:56;;;;;;;159.12;21.15;;;;;;;9.22;75.54;98617.16;4521649;31;20083;-79
2022/12/31 02:54:39;;;;;;;153.73;20.90;;;;;;;9.88;72.46;98615.22;4522401;31;20432;-79
2022/12/31 02:57:16;;;;;;;149.40;20.60;;;;;;;10.05;70.66;98612.97;4523301;31;20104;-79
2022/12/31 03:02:41;;;;;;;146.80;19.67;;;;;;;10.09;70.68;98607.66;4522671;31;20057;-79
2022/12/31 03:05:09;;;;;;;132.68;20.42;;;;;;;10.10;69.89;98605.91;4521428;31;20102;-79
2022/12/31 03:07:35;;;;;;;147.13;20.00;;;;;;;10.49;67.78;98629.63;4521512;31;20118;-79
2022/12/31 03:10:02;;;;;;;;;;;;;;;10.39;67.50;98644.56;4522706;31;20122;-79
2022/12/31 03:12:47;;;;;;;157.60;20.08;;;;;;;10.55;66.17;98637.16;4521415;31;19981;-79
2022/12/31 03:15:24;;;;;;;106.15;18.35;;;;;;;10.14;69.54;98634.16;4522506;31;20177;-79
2022/12/31 03:18:12;;;;;;;138.95;19.73;;;;;;;10.23;67.73;98630.47;4521073;31;20125;-79
2022/12/31 03:26:34;;;;;;;141.07;19.55;;;;;;;10.73;66.19;98638.25;4521627;31;20057;-79
2022/12/31 03:29:01;;;;;;;107.72;17.60;;;;;;;9.89;69.79;98630.66;4522162;31;20139;-79
2022/12/31 03:31:28;;;;;;;;;;;;;;;9.94;69.10;98631.34;4522988;31;20118;-79
2022/12/31 03:33:55;;;;;;;60.50;14.05;;;;;;;9.68;69.59;98611.53;4522179;31;20026;-78
2022/12/31 03:36:21;;;;;;;;;;;;;;;8.64;73.80;98605.91;4523064;31;20139;-78
2022/12/31 03:38:48;;;;;;;44.17;13.65;;;;;;;8.45;75.36;98602.09;4522967;31;19976;-79
2022/12/31 03:41:18;;;;;;;59.15;14.87;;;;;;;8.57;74.27;98612.06;4521809;31;20118;-78
2022/12/31 03:43:45;;;;;;;77.03;15.15;;;;;;;7.99;77.22;98605.75;4522993;31;20804;-79
2022/12/31 03:46:12;;;;;;;133.68;18.08;;;;;;;9.26;72.40;98619.63;4522205;31;20087;-79
2022/12/31 03:48:39;;;;;;;42.45;14.93;;;;;;;9.38;70.60;98612.44;4528640;31;20091;-79
2022/12/31 03:51:06;;;;;;;33.10;13.95;;;;;;;9.41;70.92;98610.59;4537809;31;20095;-79
2022/12/31 03:53:34;;;;;;;52.45;15.77;;;;;;;9.91;69.08;98615.16;4536782;31;20136;-79
2022/12/31 03:56:01;;;;;;;119.30;17.65;;;;;;;9.58;69.55;98612.72;4536931;31;20079;-79
2022/12/31 03:58:28;;;;;;;;;;;;;;;9.09;70.97;98619.25;4522751;31;20111;-79
2022/12/31 04:00:56;;;;;;;146.73;19.08;;;;;;;8.75;71.83;98616.75;4536303;31;19971;-79
2022/12/31 04:03:23;;;;;;;205.77;19.95;;;;;;;8.23;74.32;98627.47;4536820;31;20437;-79
2022/12/31 04:05:54;;;;;;;242.15;22.45;;;;;;;8.57;72.81;98622.34;4537189;31;20131;-79
2022/12/31 04:08:21;;;;;;;192.68;21.48;;;;;;;8.54;73.49;98625.84;4536815;31;20091;-79
2022/12/31 04:10:48;;;;;;;198.20;21.10;;;;;;;8.83;72.11;98624.28;4536534;31;20109;-79
2022/12/31 04:13:15;;;;;;;229.38;21.12;;;;;;;9.14;71.13;98631.97;4537410;31;20467;-79
2022/12/31 04:15:42;;;;;;;205.77;19.33;;;;;;;9.24;71.38;98638.56;4536837;31;20063;-79
2022/12/31 04:18:09;;;;;;;;;;;;;;;9.56;70.16;98643.63;4537297;31;20096;-79
2022/12/31 04:20:35;;;;;;;177.82;19.23;;;;;;;10.23;66.61;98640.78;4536705;31;19958;-79
2022/12/31 04:23:02;;;;;;;131.63;17.42;;;;;;;10.20;66.86;98652.87;4536001;31;20111;-79
2022/12/31 04:25:29;;;;;;;;;;;;;;;9.73;68.48;98653.47;4539295;31;20354;-79
2022/12/31 04:27:56;;;;;;;138.05;18.30;;;;;;;9.76;68.78;98655.09;4539024;31;19985;-79
2022/12/31 04:30:23;;;;;;;116.43;17.25;;;;;;;9.98;68.36;98663.03;4538208;31;20159;-79
2022/12/31 04:32:50;;;;;;;42.13;17.12;;;;;;;10.17;67.65;98645.25;4539063;31;20079;-79
2022/12/31 04:35:16;;;;;;;;;;;;;;;10.23;67.52;98650.28;4539736;31;20099;-79
2022/12/31 04:37:43;;;;;;;34.53;15.38;;;;;;;10.29;67.75;98653.47;4538652;31;20293;-79
2022/12/31 04:40:10;;;;;;;34.45;15.18;;;;;;;10.59;67.01;98659.37;4538944;31;20343;-79
2022/12/31 04:42:37;;;;;;;32.75;14.50;;;;;;;10.58;66.92;98664.59;4538681;31;20080;-80
2022/12/31 04:45:05;;;;;;;32.03;14.65;;;;;;;10.79;66.59;98673.38;4539397;31;20135;-79
2022/12/31 04:47:32;;;;;;;33.90;14.55;;;;;;;10.77;66.84;98673.41;4538846;31;20423;-79
2022/12/31 04:49:59;;;;;;;34.78;15.20;;;;;;;10.78;66.53;98675.09;4538680;31;20100;-79
2022/12/31 04:52:25;;;;;;;;;;;;;;;11.16;65.08;98676.34;4539061;31;20720;-79
2022/12/31 04:54:52;;;;;;;32.50;15.32;;;;;;;10.93;66.06;98682.31;4538674;31;19971;-79
2022/12/31 04:57:19;;;;;;;;;;;;;;;10.81;66.83;98684.47;4538332;31;20182;-79
2022/12/31 04:59:46;;;;;;;32.83;14.32;;;;;;;11.42;62.87;98672.88;4538481;31;19983;-79
2022/12/31 05:02:13;;;;;;;31.60;14.50;;;;;;;11.38;63.30;98685.94;4538631;31;20091;-79
2022/12/31 05:04:40;;;;;;;38.47;15.52;;;;;;;10.92;65.91;98701.28;4538368;31;20091;-79
2022/12/31 05:07:07;;;;;;;33.83;15.80;;;;;;;10.69;66.82;98696.06;4538889;31;20104;-79
2022/12/31 05:09:34;;;;;;;34.10;15.10;;;;;;;10.58;67.45;98695.56;4538745;31;20745;-79
2022/12/31 05:12:00;;;;;;;32.55;15.57;;;;;;;11.24;64.08;98691.59;4537930;31;20091;-79
2022/12/31 05:14:27;;;;;;;31.87;15.35;;;;;;;11.20;63.92;98695.19;4538156;31;20450;-79
2022/12/31 05:16:54;;;;;;;35.05;15.27;;;;;;;10.15;68.57;98696.88;4537856;31;20096;-79
2022/12/31 05:19:21;;;;;;;39.45;16.00;;;;;;;9.52;71.47;98701.31;4537291;31;20087;-79
2022/12/31 05:22:27;;;;;;;35.15;15.43;;;;;;;10.39;68.58;98692.72;4537455;31;20087;-79
2022/12/31 05:24:35;;;;;;;37.17;16.25;;;;;;;11.10;65.13;98704.16;4537690;31;20772;-79
2022/12/31 05:27:02;;;;;;;32.25;14.75;;;;;;;11.28;63.97;98703.53;4537765;31;20095;-79
2022/12/31 05:29:29;;;;;;;31.73;15.15;;;;;;;10.54;66.43;98710.31;4537963;31;20111;-79
2022/12/31 05:31:56;;;;;;;32.38;13.75;;;;;;;10.79;66.21;98714.66;4537672;31;20082;-79
2022/12/31 05:34:22;;;;;;;;;;;;;;;10.06;67.91;98721.19;4537618;31;20645;-79
2022/12/31 05:36:49;;;;;;;31.90;14.87;;;;;;;10.72;66.73;98727.75;4538123;31;19971;-79
2022/12/31 05:39:16;;;;;;;33.28;14.77;;;;;;;11.13;64.37;98720.37;4523158;31;20110;-79
2022/12/31 05:41:44;;;;;;;29.98;14.10;;;;;;;10.85;65.80;98722.22;4537870;31;20197;-79
2022/12/31 05:44:11;;;;;;;27.00;13.32;;;;;;;10.56;67.46;98720.56;4538783;31;20059;-79
2022/12/31 05:46:38;;;;;;;27.95;13.82;;;;;;;10.45;68.36;98717.50;4537765;31;20552;-79
2022/12/31 05:49:05;;;;;;;27.37;12.88;;;;;;;10.79;67.33;98718.09;4537973;31;20060;-79
2022/12/31 05:51:32;;;;;;;;;;;;;;;10.32;68.99;98715.31;4538249;31;20087;-79
2022/12/31 05:53:59;;;;;;;24.90;11.27;;;;;;;10.25;70.92;98723.28;4537695;31;19967;-79
2022/12/31 05:56:26;;;;;;;25.50;11.10;;;;;;;10.56;69.95;98733.47;4537962;31;20103;-79
2022/12/31 05:58:53;;;;;;;;;;;;;;;10.76;70.53;98733.69;4538415;31;20243;-79
2022/12/31 06:01:21;;;;;;;25.75;10.98;;;;;;;11.76;68.18;98742.25;4523198;31;19973;-79
2022/12/31 06:03:48;;;;;;;22.42;10.07;;;;;;;11.47;72.69;98743.28;4537963;31;20381;-79
2022/12/31 06:06:15;;;;;;;22.05;10.55;;;;;;;11.19;75.24;98745.16;4537666;31;20147;-79
2022/12/31 06:08:41;;;;;;;21.00;9.73;;;;;;;10.98;78.18;98739.81;4537668;31;20100;-79
2022/12/31 06:11:08;;;;;;;24.42;10.38;;;;;;;10.41;83.84;98734.78;4537987;31;20094;-79
2022/12/31 06:13:35;;;;;;;21.75;9.65;;;;;;;11.35;80.61;98729.97;4538153;31;20071;-79
2022/12/31 06:16:07;;;;;;;17.87;8.32;;;;;;;11.52;79.71;98745.75;4537678;31;20111;-79
2022/12/31 06:18:34;;;;;;;20.35;9.05;;;;;;;12.15;76.46;98754.66;4523195;31;20166;-79
2022/12/31 06:21:01;;;;;;;17.67;8.75;;;;;;;12.16;76.87;98756.34;4537527;31;20107;-79
2022/12/31 06:23:28;;;;;;;18.40;8.77;;;;;;;12.24;76.16;98756.91;4537023;31;20392;-79
2022/12/31 06:25:54;;;;;;;;;;;;;;;12.35;76.37;98759.91;4538174;31;20111;-79
2022/12/31 06:28:21;;;;;;;17.87;8.10;;;;;;;12.25;77.84;98752.56;4538036;31;19979;-79
2022/12/31 06:30:49;;;;;;;18.62;8.77;;;;;;;12.13;77.54;98762.47;4537613;31;20086;-79
2022/12/31 06:33:16;;;;;;;16.83;7.95;;;;;;;12.44;76.71;98766.47;4537636;31;20060;-79
2022/12/31 06:35:43;;;;;;;16.87;8.23;;;;;;;13.18;72.84;98772.94;4537391;31;20677;-79
2022/12/31 06:38:10;;;;;;;18.95;8.05;;;;;;;13.00;74.26;98773.72;4538049;31;20092;-79
2022/12/31 06:40:37;;;;;;;17.98;8.23;;;;;;;12.64;76.55;98776.88;4537842;31;20055;-79
2022/12/31 06:43:04;;;;;;;19.77;8.32;;;;;;;12.54;77.52;98777.28;4537518;31;20074;-79
2022/12/31 06:45:31;;;;;;;19.50;7.53;;;;;;;13.05;75.90;98776.97;4537548;31;20160;-79
2022/12/31 06:47:58;;;;;;;17.08;8.23;;;;;;;13.26;75.24;98785.62;4536990;31;20590;-79
2022/12/31 06:50:25;;;;;;;17.73;8.10;;;;;;;13.08;74.94;98781.16;4537289;31;20147;-79
2022/12/31 06:52:52;;;;;;;16.35;7.90;;;;;;;12.89;75.45;98786.28;4537580;31;20113;-79
2022/12/31 06:55:19;;;;;;;14.30;7.32;;;;;;;12.70;75.67;98786.16;4537532;31;20236;-79
2022/12/31 06:57:46;;;;;;;16.77;7.70;;;;;;;12.65;74.92;98791.53;4536769;31;20099;-79
2022/12/31 07:00:14;;;;;;;17.00;7.72;;;;;;;13.38;72.79;98782.50;4537382;31;20090;-79
2022/12/31 07:02:43;;;;;;;17.17;7.70;;;;;;;12.14;79.04;98781.44;4537496;31;20083;-79
2022/12/31 07:05:23;;;;;;;21.40;8.50;;;;;;;12.37;78.93;98783.97;4537438;31;20095;-79
2022/12/31 07:08:12;;;;;;;18.05;7.07;;;;;;;13.20;75.59;98802.28;4537764;31;20432;-79
2022/12/31 07:10:42;;;;;;;17.45;7.72;;;;;;;13.21;75.87;98808.31;4537135;31;20105;-79
2022/12/31 07:13:37;;;;;;;15.88;7.25;;;;;;;12.36;79.84;98800.41;4537648;31;20345;-79
2022/12/31 07:16:19;;;;;;;16.50;8.52;;;;;;;11.93;82.20;98789.97;4523292;31;20163;-79
2022/12/31 07:18:54;;;;;;;17.05;7.45;;;;;;;12.89;77.75;98804.41;4537169;31;20115;-79
2022/12/31 07:21:32;;;;;;;17.98;7.05;;;;;;;13.33;75.95;98812.97;4522872;31;20428;-79
2022/12/31 07:23:59;;;;;;;14.05;6.65;;;;;;;13.56;74.58;98820.63;4523062;31;20104;-79
2022/12/31 07:26:48;;;;;;;19.48;8.40;;;;;;;13.86;72.66;98828.00;4537536;31;20386;-79
2022/12/31 07:29:44;;;;;;;16.65;7.70;;;;;;;13.48;75.61;98833.06;4537103;31;20166;-79
2022/12/31 07:32:20;;;;;;;17.02;8.02;;;;;;;14.55;69.40;98841.34;4522729;31;20059;-79
2022/12/31 07:35:08;;;;;;;20.27;8.77;;;;;;;13.63;73.47;98831.59;4537677;31;20083;-79
2022/12/31 07:37:45;;;;;;;17.55;8.20;;;;;;;13.92;72.01;98830.31;4537447;31;20443;-79
2022/12/31 07:40:34;;;;;;;16.75;8.45;;;;;;;14.01;72.13;98845.47;4537523;31;20118;-79
2022/12/31 07:43:07;;;;;;;17.02;8.55;;;;;;;14.13;71.60;98852.72;4537585;31;20083;-79
2022/12/31 07:45:45;;;;;;;17.08;8.57;;;;;;;13.14;76.81;98850.87;4537266;31;20079;-79
2022/12/31 07:48:26;;;;;;;17.70;8.52;;;;;;;12.83;78.95;98846.06;4523010;31;20114;-79
2022/12/31 07:50:55;;;;;;;19.10;8.20;;;;;;;12.64;80.83;98849.38;4534820;31;20118;-78
2022/12/31 07:53:23;;;;;;;17.30;8.45;;;;;;;12.83;80.65;98862.47;4536482;31;20441;-79
2022/12/31 07:55:59;;;;;;;18.98;8.90;;;;;;;12.96;80.16;98870.59;4536905;31;20155;-79
2022/12/31 07:58:38;;;;;;;18.92;9.55;;;;;;;13.34;77.76;98876.88;4523838;31;20103;-79
2022/12/31 08:01:12;;;;;;;18.37;8.75;;;;;;;12.87;79.11;98877.00;4538947;31;20059;-79
2022/12/31 08:03:55;;;;;;;18.27;8.68;;;;;;;13.11;79.57;98882.94;4539489;31;20551;-79
2022/12/31 08:06:54;;;;;;;16.95;8.35;;;;;;;13.59;77.59;98880.13;4538704;31;20135;-79
2022/12/31 08:09:57;;;;;;;19.60;8.60;;;;;;;13.55;78.81;98875.16;4470192;31;20111;-79
2022/12/31 08:12:25;;;;;;;17.25;8.45;;;;;;;13.38;79.70;98878.41;4539775;31;20052;-79
2022/12/31 08:14:52;;;;;;;17.00;7.93;;;;;;;13.27;81.34;98876.28;4524759;31;20087;-79
2022/12/31 08:17:19;;;;;;;17.45;8.73;;;;;;;13.69;78.97;98874.56;4539227;31;20127;-79
2022/12/31 08:19:46;;;;;;;15.45;7.85;;;;;;;13.68;79.79;98885.84;4539260;31;20550;-79
2022/12/31 08:22:38;;;;;;;17.55;8.27;;;;;;;13.97;78.32;98888.06;4539220;31;20155;-79
2022/12/31 08:25:27;;;;;;;15.75;7.62;;;;;;;14.22;76.55;98900.78;4525513;31;20100;-79
2022/12/31 08:28:04;;;;;;;15.07;7.00;;;;;;;14.03;77.25;98913.72;4538920;31;20425;-79
2022/12/31 08:30:54;;;;;;;16.48;7.62;;;;;;;14.16;77.02;98919.25;4539872;31;20103;-79
2022/12/31 08:33:39;;;;;;;14.30;7.10;;;;;;;14.22;77.84;98913.78;4529224;31;20160;-79
2022/12/31 08:36:09;;;;;;;17.90;7.10;;;;;;;14.10;77.92;98914.31;4539322;31;20106;-79
2022/12/31 08:38:46;;;;;;;16.00;7.12;;;;;;;14.09;76.68;98910.03;4539766;31;20064;-79
2022/12/31 08:41:19;;;;;;;15.77;7.72;;;;;;;14.00;77.45;98907.81;4525173;31;20068;-79
2022/12/31 08:44:06;;;;;;;14.70;6.95;;;;;;;13.96;77.41;98914.91;4539750;31;20083;-79
2022/12/31 08:47:03;;;;;;;13.77;6.65;;;;;;;14.22;77.08;98920.72;4525242;31;20087;-79
2022/12/31 08:49:33;;;;;;;15.02;7.07;;;;;;;13.84;78.12;98924.06;4538969;31;20159;-79
2022/12/31 08:52:00;;;;;;;15.48;7.00;;;;;;;13.88;79.00;98922.16;4539250;31;20092;-79
2022/12/31 08:54:28;;;;;;;15.85;7.37;;;;;;;13.83;79.53;98926.72;4538293;31;20143;-79
2022/12/31 08:57:33;;;;;;;14.48;6.53;;;;;;;13.70;80.16;98925.50;4523471;31;20105;-79
2022/12/31 09:00:11;;;;;;;14.35;6.82;;;;;;;14.24;77.38;98931.88;4524063;31;20152;-79
2022/12/31 09:03:06;;;;;;;14.60;7.40;;;;;;;14.70;76.01;98935.91;4523323;31;20103;-80
2022/12/31 09:05:56;;;;;;;16.62;7.53;;;;;;;14.59;76.47;98938.16;4538570;31;20095;-79
2022/12/31 09:08:34;;;;;;;13.85;7.07;;;;;;;14.67;75.47;98934.31;4539120;31;20083;-79
2022/12/31 09:11:10;;;;;;;13.25;6.78;;;;;;;13.87;79.92;98923.06;4537964;31;20087;-79
2022/12/31 09:14:08;;;;;;;17.27;7.68;;;;;;;14.21;79.36;98913.84;4537945;31;20103;-79
2022/12/31 09:16:44;;;;;;;15.45;6.93;;;;;;;13.16;84.41;98888.78;4537759;31;20059;-79
2022/12/31 09:19:11;;;;;;;16.62;7.43;;;;;;;12.81;86.30;98897.94;4537731;31;20059;-79
2022/12/31 09:21:43;;;;;;;15.55;7.07;;;;;;;13.48;83.50;98884.06;4537827;31;20071;-79
2022/12/31 09:24:12;;;;;;;16.08;7.72;;;;;;;14.15;80.95;98892.44;4537983;31;20100;-79
2022/12/31 09:26:47;;;;;;;16.77;7.60;;;;;;;14.15;80.51;98895.03;4524446;31;20151;-79
2022/12/31 09:29:33;;;;;;;16.35;7.30;;;;;;;13.85;81.60;98901.56;4538014;31;20098;-79
2022/12/31 09:32:24;;;;;;;18.62;7.20;;;;;;;13.28;84.08;98900.44;4537584;31;20101;-79
2022/12/31 09:34:54;;;;;;;14.73;6.87;;;;;;;12.90;87.21;98920.91;4538143;31;20095;-79
2022/12/31 09:37:38;;;;;;;18.02;7.50;;;;;;;12.92;87.41;98919.09;4537051;31;20447;-79
2022/12/31 09:40:35;;;;;;;15.43;7.05;;;;;;;12.94;88.01;98911.25;4537629;31;20158;-79
2022/12/31 09:43:41;;;;;;;16.92;7.37;;;;;;;12.99;87.26;98914.53;4537514;31;20079;-79
2022/12/31 09:47:03;;;;;;;17.27;7.22;;;;;;;13.40;85.83;98902.56;4471736;32;20550;-79
2022/12/31 09:50:03;;;;;;;14.85;6.90;;;;;;;13.97;84.01;98898.44;4471529;32;20133;-77
2022/12/31 09:52:42;;;;;;;16.85;7.20;;;;;;;14.43;82.07;98906.78;4527153;31;20059;-78
2022/12/31 09:55:32;;;;;;;18.15;6.68;;;;;;;14.54;80.97;98907.19;4540504;31;20067;-78
2022/12/31 09:58:14;;;;;;;15.02;7.40;;;;;;;14.28;81.56;98900.53;4526524;31;20421;-78
2022/12/31 10:00:51;;;;;;;13.65;6.62;;;;;;;14.32;83.01;98896.87;4541061;31;20095;-78
2022/12/31 10:03:18;;;;;;;14.80;7.00;;;;;;;14.74;80.66;98894.13;4526490;31;20106;-78
2022/12/31 10:06:10;;;;;;;15.32;7.43;;;;;;;15.53;76.69;98894.69;4540569;31;20075;-78
2022/12/31 10:08:55;;;;;;;15.57;7.20;;;;;;;15.36;76.82;98893.84;4541561;31;20068;-79
2022/12/31 10:11:23;;;;;;;14.15;6.60;;;;;;;15.94;73.82;98891.78;4541757;31;20114;-78
2022/12/31 10:14:05;;;;;;;14.98;6.95;;;;;;;15.75;74.40;98894.50;4542034;31;20087;-79
2022/12/31 10:16:54;;;;;;;15.40;6.80;;;;;;;16.23;71.84;98890.28;4527368;31;20075;-78
2022/12/31 10:19:46;;;;;;;15.50;6.45;;;;;;;16.07;72.62;98887.66;4541153;31;20091;-78
2022/12/31 10:22:41;;;;;;;15.90;6.45;;;;;;;16.01;72.44;98893.16;4527197;31;20597;-78
2022/12/31 10:25:29;;;;;;;15.65;7.53;;;;;;;16.25;72.08;98882.41;4542165;31;20080;-78
2022/12/31 10:28:10;;;;;;;15.43;6.95;;;;;;;15.88;73.91;98872.13;4540873;31;20101;-78
2022/12/31 10:30:47;;;;;;;15.02;6.95;;;;;;;15.99;73.91;98879.41;4527185;31;20120;-78
2022/12/31 10:33:34;;;;;;;16.50;7.05;;;;;;;15.95;74.92;98884.81;4541633;31;20084;-78
2022/12/31 10:36:31;;;;;;;13.45;6.18;;;;;;;16.48;72.85;98897.63;4526567;31;20143;-79
2022/12/31 10:39:01;;;;;;;16.17;6.60;;;;;;;16.64;72.44;98875.06;4507020;31;20051;-79
2022/12/31 10:42:05;;;;;;;11.93;5.65;;;;;;;17.09;70.21;98870.03;4540004;31;20063;-79
2022/12/31 10:44:53;;;;;;;15.63;5.62;;;;;;;15.97;72.86;98865.63;4540280;31;20087;-79
2022/12/31 10:47:20;;;;;;;15.68;6.55;;;;;;;15.12;79.39;98864.66;4534832;31;161917;-78
2022/12/31 10:50:14;;;;;;;14.30;6.22;;;;;;;15.34;78.72;98870.50;4540375;31;20667;-79
2022/12/31 10:53:14;;;;;;;15.70;6.53;;;;;;;15.48;77.67;98875.88;4540317;31;20074;-78
2022/12/31 10:56:00;;;;;;;14.57;6.50;;;;;;;15.70;76.74;98880.87;4540121;31;20106;-79
2022/12/31 10:59:04;;;;;;;15.10;6.28;;;;;;;15.63;77.04;98876.91;4540037;31;20097;-78
2022/12/31 11:01:48;;;;;;;14.18;5.82;;;;;;;15.93;75.91;98884.91;4525191;31;20706;-78
2022/12/31 11:04:30;;;;;;;13.80;6.47;;;;;;;15.79;75.21;98884.78;4539476;31;20115;-78
2022/12/31 11:07:22;;;;;;;13.57;6.00;;;;;;;15.74;75.94;98885.03;4525120;31;20119;-78
2022/12/31 11:09:56;;;;;;;12.80;6.25;;;;;;;14.98;79.77;98868.75;4538789;31;20083;-78
2022/12/31 11:12:23;;;;;;;14.57;6.35;;;;;;;15.34;78.28;98881.75;4539375;31;20119;-78
2022/12/31 11:15:00;;;;;;;;;;;;;;;15.43;78.22;98869.22;4538525;31;20107;-78
2022/12/31 11:17:30;;;;;;;12.48;5.68;;;;;;;15.63;76.99;98858.69;4523431;31;20002;-78
2022/12/31 11:20:18;;;;;;;12.30;5.82;;;;;;;15.22;78.47;98861.56;4523927;31;20151;-78
2022/12/31 11:23:08;;;;;;;12.18;5.12;;;;;;;15.50;77.61;98857.56;4537422;31;20563;-78
2022/12/31 11:25:53;;;;;;;12.85;5.22;;;;;;;15.71;77.33;98856.53;4523818;31;20107;-78
2022/12/31 11:28:32;;;;;;;12.90;5.78;;;;;;;16.11;75.28;98852.72;4537819;31;20091;-79
2022/12/31 11:31:29;;;;;;;11.88;4.95;;;;;;;16.52;72.46;98851.44;4537516;31;20135;-79
2022/12/31 11:34:02;;;;;;;12.85;5.20;;;;;;;16.92;69.92;98843.16;4539214;31;20106;-79
2022/12/31 11:36:35;;;;;;;13.40;5.30;;;;;;;16.75;69.44;98843.25;4540074;31;20100;-79
2022/12/31 11:39:22;;;;;;;11.88;5.20;;;;;;;17.27;67.75;98843.75;4540237;31;20056;-78
2022/12/31 11:42:38;;;;;;;11.10;4.87;;;;;;;17.11;67.72;98835.13;4540679;31;20131;-79
2022/12/31 11:45:20;;;;;;;11.82;5.40;;;;;;;17.21;67.55;98832.84;4518641;31;20171;-79
2022/12/31 11:48:10;;;;;;;13.55;5.35;;;;;;;17.21;67.03;98835.44;4539993;31;20059;-78
2022/12/31 11:51:09;;;;;;;11.93;4.68;;;;;;;16.88;68.47;98844.25;4527008;31;20126;-78
2022/12/31 11:53:56;;;;;;;10.10;4.60;;;;;;;16.94;67.34;98843.06;4539420;31;20087;-78
2022/12/31 11:56:24;;;;;;;10.70;4.55;;;;;;;16.65;67.75;98852.47;4539863;31;20473;-78
2022/12/31 11:58:53;;;;;;;10.63;4.05;;;;;;;17.05;66.21;98848.53;4524080;31;20103;-78
2022/12/31 12:01:31;;;;;;;11.75;5.30;;;;;;;16.87;66.63;98852.97;4525303;31;20793;-79
2022/12/31 12:03:59;;;;;;;11.02;4.90;;;;;;;16.71;68.16;98847.78;4526255;31;20107;-79
2022/12/31 12:06:31;;;;;;;11.35;5.00;;;;;;;17.02;66.88;98846.94;4539347;31;20239;-79
2022/12/31 12:09:03;;;;;;;12.00;4.80;;;;;;;16.25;69.89;98843.34;4524515;31;20064;-79